<?xml version="1.0" encoding="utf-8"?>
<gpx xmlns:xsi="http://www.w3.org/2001/XMLSchema-instance" xmlns:xsd="http://www.w3.org/2001/XMLSchema" version="1.1" creator="Shapelink.com" xmlns="http://www.topografix.com/GPX/1/1" xmlns:gpxtpx="http://www.garmin.com/xmlschemas/TrackPointExtension/v1">
  <metadata>
    <name>Cycling 15.30 km, 2020-06-28</name>
    <desc></desc>
    <author><name>Marian Moron</name></author> 
    <time>2020-06-28T17:18:05Z</time>
  </metadata>
  <trk>
    <name>Cycling 15.30 km, 2020-06-28</name>
    <trkseg>
      <trkpt lat="51.228550483255" lon="4.449426757431">
        <ele>0</ele>
        <time>2020-06-28T17:18:05Z</time>
      </trkpt>
      <trkpt lat="51.22857437167" lon="4.449405383586">
        <ele>0</ele>
        <time>2020-06-28T17:18:07Z</time>
      </trkpt>
      <trkpt lat="51.228922304339" lon="4.448745225142">
        <ele>0</ele>
        <time>2020-06-28T17:18:32Z</time>
      </trkpt>
      <trkpt lat="51.229002519122" lon="4.448687976765">
        <ele>0</ele>
        <time>2020-06-28T17:18:37Z</time>
      </trkpt>
      <trkpt lat="51.229339220045" lon="4.449358528765">
        <ele>0</ele>
        <time>2020-06-28T17:19:00Z</time>
      </trkpt>
      <trkpt lat="51.229499649611" lon="4.450199736249">
        <ele>0</ele>
        <time>2020-06-28T17:19:18Z</time>
      </trkpt>
      <trkpt lat="51.229683380859" lon="4.451010517436">
        <ele>1.4</ele>
        <time>2020-06-28T17:19:37Z</time>
      </trkpt>
      <trkpt lat="51.230242285951" lon="4.45081069294">
        <ele>0.6</ele>
        <time>2020-06-28T17:19:53Z</time>
      </trkpt>
      <trkpt lat="51.230468848708" lon="4.450818823383">
        <ele>1.8</ele>
        <time>2020-06-28T17:20:02Z</time>
      </trkpt>
      <trkpt lat="51.230454767116" lon="4.450711451244">
        <ele>11.8</ele>
        <time>2020-06-28T17:24:09Z</time>
      </trkpt>
      <trkpt lat="51.229906507037" lon="4.450832066785">
        <ele>8.8</ele>
        <time>2020-06-28T17:24:30Z</time>
      </trkpt>
      <trkpt lat="51.229688074723" lon="4.450915131414">
        <ele>7.6</ele>
        <time>2020-06-28T17:24:38Z</time>
      </trkpt>
      <trkpt lat="51.229511971004" lon="4.450096052146">
        <ele>0.8</ele>
        <time>2020-06-28T17:24:57Z</time>
      </trkpt>
      <trkpt lat="51.229360929166" lon="4.449253419739">
        <ele>2.4</ele>
        <time>2020-06-28T17:25:13Z</time>
      </trkpt>
      <trkpt lat="51.229060186594" lon="4.44855763822">
        <ele>4</ele>
        <time>2020-06-28T17:25:30Z</time>
      </trkpt>
      <trkpt lat="51.228676882307" lon="4.447892199179">
        <ele>0</ele>
        <time>2020-06-28T17:25:46Z</time>
      </trkpt>
      <trkpt lat="51.228295086762" lon="4.447168925028">
        <ele>0.4</ele>
        <time>2020-06-28T17:26:04Z</time>
      </trkpt>
      <trkpt lat="51.228206909174" lon="4.447093236471">
        <ele>1.8</ele>
        <time>2020-06-28T17:26:07Z</time>
      </trkpt>
      <trkpt lat="51.22777809117" lon="4.44762724732">
        <ele>0</ele>
        <time>2020-06-28T17:26:23Z</time>
      </trkpt>
      <trkpt lat="51.227394619245" lon="4.448257398562">
        <ele>4.4</ele>
        <time>2020-06-28T17:26:38Z</time>
      </trkpt>
      <trkpt lat="51.227079795081" lon="4.448975308297">
        <ele>2.4</ele>
        <time>2020-06-28T17:26:54Z</time>
      </trkpt>
      <trkpt lat="51.227023971627" lon="4.449280912371">
        <ele>2.2</ele>
        <time>2020-06-28T17:27:01Z</time>
      </trkpt>
      <trkpt lat="51.227016847012" lon="4.449309829926">
        <ele>3.6</ele>
        <time>2020-06-28T17:27:17Z</time>
      </trkpt>
      <trkpt lat="51.226986169258" lon="4.449331790504">
        <ele>3.2</ele>
        <time>2020-06-28T17:27:20Z</time>
      </trkpt>
      <trkpt lat="51.226475711548" lon="4.449571596663">
        <ele>4.4</ele>
        <time>2020-06-28T17:27:40Z</time>
      </trkpt>
      <trkpt lat="51.226065249905" lon="4.450214991307">
        <ele>13.2</ele>
        <time>2020-06-28T17:27:54Z</time>
      </trkpt>
      <trkpt lat="51.225647831285" lon="4.450848914404">
        <ele>16.2</ele>
        <time>2020-06-28T17:28:08Z</time>
      </trkpt>
      <trkpt lat="51.225269137043" lon="4.451511503599">
        <ele>10.6</ele>
        <time>2020-06-28T17:28:24Z</time>
      </trkpt>
      <trkpt lat="51.224985828823" lon="4.45227417268">
        <ele>3.8</ele>
        <time>2020-06-28T17:28:42Z</time>
      </trkpt>
      <trkpt lat="51.22483939703" lon="4.453112949413">
        <ele>0</ele>
        <time>2020-06-28T17:28:59Z</time>
      </trkpt>
      <trkpt lat="51.224770078717" lon="4.454001849908">
        <ele>0</ele>
        <time>2020-06-28T17:29:16Z</time>
      </trkpt>
      <trkpt lat="51.224718781489" lon="4.454409126429">
        <ele>0</ele>
        <time>2020-06-28T17:29:26Z</time>
      </trkpt>
      <trkpt lat="51.224557681371" lon="4.454402756185">
        <ele>4.2</ele>
        <time>2020-06-28T17:29:35Z</time>
      </trkpt>
      <trkpt lat="51.22450495922" lon="4.454466290987">
        <ele>8.8</ele>
        <time>2020-06-28T17:30:07Z</time>
      </trkpt>
      <trkpt lat="51.223960722453" lon="4.454477355095">
        <ele>10.2</ele>
        <time>2020-06-28T17:30:30Z</time>
      </trkpt>
      <trkpt lat="51.223411708003" lon="4.454429326808">
        <ele>15.8</ele>
        <time>2020-06-28T17:30:47Z</time>
      </trkpt>
      <trkpt lat="51.222849953065" lon="4.454366630196">
        <ele>16</ele>
        <time>2020-06-28T17:31:05Z</time>
      </trkpt>
      <trkpt lat="51.222312589456" lon="4.454296641331">
        <ele>3.8</ele>
        <time>2020-06-28T17:31:26Z</time>
      </trkpt>
      <trkpt lat="51.221746895025" lon="4.454275518943">
        <ele>0.8</ele>
        <time>2020-06-28T17:31:43Z</time>
      </trkpt>
      <trkpt lat="51.221191677969" lon="4.454285661042">
        <ele>4.6</ele>
        <time>2020-06-28T17:32:00Z</time>
      </trkpt>
      <trkpt lat="51.220651045419" lon="4.454335617166">
        <ele>3.8</ele>
        <time>2020-06-28T17:32:20Z</time>
      </trkpt>
      <trkpt lat="51.22027964343" lon="4.454984627683">
        <ele>7</ele>
        <time>2020-06-28T17:32:37Z</time>
      </trkpt>
      <trkpt lat="51.219973620261" lon="4.45529668582">
        <ele>5.2</ele>
        <time>2020-06-28T17:32:51Z</time>
      </trkpt>
      <trkpt lat="51.219938667738" lon="4.455339601148">
        <ele>4.4</ele>
        <time>2020-06-28T17:33:25Z</time>
      </trkpt>
      <trkpt lat="51.219853759091" lon="4.455414535334">
        <ele>4.2</ele>
        <time>2020-06-28T17:33:30Z</time>
      </trkpt>
      <trkpt lat="51.219534660158" lon="4.454676509039">
        <ele>0</ele>
        <time>2020-06-28T17:33:48Z</time>
      </trkpt>
      <trkpt lat="51.219294267266" lon="4.453915181062">
        <ele>0</ele>
        <time>2020-06-28T17:34:07Z</time>
      </trkpt>
      <trkpt lat="51.218836783164" lon="4.454394961018">
        <ele>1</ele>
        <time>2020-06-28T17:34:26Z</time>
      </trkpt>
      <trkpt lat="51.218363960185" lon="4.45484490141">
        <ele>0.4</ele>
        <time>2020-06-28T17:34:44Z</time>
      </trkpt>
      <trkpt lat="51.218094146824" lon="4.455502210008">
        <ele>1.2</ele>
        <time>2020-06-28T17:35:03Z</time>
      </trkpt>
      <trkpt lat="51.21802910328" lon="4.45636956902">
        <ele>0</ele>
        <time>2020-06-28T17:35:19Z</time>
      </trkpt>
      <trkpt lat="51.217979985346" lon="4.457261570818">
        <ele>0</ele>
        <time>2020-06-28T17:35:35Z</time>
      </trkpt>
      <trkpt lat="51.217927263195" lon="4.458149465485">
        <ele>0.6</ele>
        <time>2020-06-28T17:35:53Z</time>
      </trkpt>
      <trkpt lat="51.217913684517" lon="4.459017914144">
        <ele>6.8</ele>
        <time>2020-06-28T17:36:09Z</time>
      </trkpt>
      <trkpt lat="51.217870433913" lon="4.459909999761">
        <ele>2.6</ele>
        <time>2020-06-28T17:36:27Z</time>
      </trkpt>
      <trkpt lat="51.217854089208" lon="4.46077006652">
        <ele>0</ele>
        <time>2020-06-28T17:36:42Z</time>
      </trkpt>
      <trkpt lat="51.217794074804" lon="4.46161999118">
        <ele>0</ele>
        <time>2020-06-28T17:36:59Z</time>
      </trkpt>
      <trkpt lat="51.217793739528" lon="4.462515848652">
        <ele>0</ele>
        <time>2020-06-28T17:37:16Z</time>
      </trkpt>
      <trkpt lat="51.21774914782" lon="4.463375496316">
        <ele>2.4</ele>
        <time>2020-06-28T17:37:32Z</time>
      </trkpt>
      <trkpt lat="51.217691899443" lon="4.464282417896">
        <ele>0</ele>
        <time>2020-06-28T17:37:49Z</time>
      </trkpt>
      <trkpt lat="51.217614450687" lon="4.46518565144">
        <ele>0</ele>
        <time>2020-06-28T17:38:05Z</time>
      </trkpt>
      <trkpt lat="51.217582850924" lon="4.466056782307">
        <ele>0</ele>
        <time>2020-06-28T17:38:20Z</time>
      </trkpt>
      <trkpt lat="51.217582012734" lon="4.466931852667">
        <ele>0</ele>
        <time>2020-06-28T17:38:37Z</time>
      </trkpt>
      <trkpt lat="51.217564997477" lon="4.467840115351">
        <ele>0</ele>
        <time>2020-06-28T17:38:58Z</time>
      </trkpt>
      <trkpt lat="51.217530966963" lon="4.468714012245">
        <ele>0</ele>
        <time>2020-06-28T17:39:13Z</time>
      </trkpt>
      <trkpt lat="51.217474975871" lon="4.469588412053">
        <ele>0</ele>
        <time>2020-06-28T17:39:32Z</time>
      </trkpt>
      <trkpt lat="51.217424684471" lon="4.470454681418">
        <ele>0</ele>
        <time>2020-06-28T17:39:49Z</time>
      </trkpt>
      <trkpt lat="51.217414374734" lon="4.471355987125">
        <ele>0</ele>
        <time>2020-06-28T17:40:09Z</time>
      </trkpt>
      <trkpt lat="51.217379925125" lon="4.472237092453">
        <ele>1</ele>
        <time>2020-06-28T17:40:29Z</time>
      </trkpt>
      <trkpt lat="51.217341955118" lon="4.473115515573">
        <ele>0</ele>
        <time>2020-06-28T17:40:48Z</time>
      </trkpt>
      <trkpt lat="51.217302224912" lon="4.47401765947">
        <ele>0</ele>
        <time>2020-06-28T17:41:05Z</time>
      </trkpt>
      <trkpt lat="51.217248664571" lon="4.474889796165">
        <ele>0</ele>
        <time>2020-06-28T17:41:23Z</time>
      </trkpt>
      <trkpt lat="51.217210694564" lon="4.475771907321">
        <ele>0</ele>
        <time>2020-06-28T17:41:40Z</time>
      </trkpt>
      <trkpt lat="51.217169287978" lon="4.476646642405">
        <ele>0</ele>
        <time>2020-06-28T17:41:56Z</time>
      </trkpt>
      <trkpt lat="51.217130982695" lon="4.477549289216">
        <ele>0</ele>
        <time>2020-06-28T17:42:15Z</time>
      </trkpt>
      <trkpt lat="51.217114470352" lon="4.478427125603">
        <ele>0</ele>
        <time>2020-06-28T17:42:33Z</time>
      </trkpt>
      <trkpt lat="51.21707272849" lon="4.47929238914">
        <ele>0</ele>
        <time>2020-06-28T17:42:50Z</time>
      </trkpt>
      <trkpt lat="51.217026041307" lon="4.480183888024">
        <ele>0.6</ele>
        <time>2020-06-28T17:43:08Z</time>
      </trkpt>
      <trkpt lat="51.216992597526" lon="4.481110590888">
        <ele>0</ele>
        <time>2020-06-28T17:43:25Z</time>
      </trkpt>
      <trkpt lat="51.2169880713" lon="4.48180695914">
        <ele>0</ele>
        <time>2020-06-28T17:44:04Z</time>
      </trkpt>
      <trkpt lat="51.21700734967" lon="4.481958084797">
        <ele>0</ele>
        <time>2020-06-28T17:44:12Z</time>
      </trkpt>
      <trkpt lat="51.217027550049" lon="4.482111641205">
        <ele>0</ele>
        <time>2020-06-28T17:44:45Z</time>
      </trkpt>
      <trkpt lat="51.216920932281" lon="4.482940443477">
        <ele>0</ele>
        <time>2020-06-28T17:45:02Z</time>
      </trkpt>
      <trkpt lat="51.216880196247" lon="4.483815178561">
        <ele>0</ele>
        <time>2020-06-28T17:45:17Z</time>
      </trkpt>
      <trkpt lat="51.216857984212" lon="4.484675496777">
        <ele>0</ele>
        <time>2020-06-28T17:45:32Z</time>
      </trkpt>
      <trkpt lat="51.216797969808" lon="4.485569510231">
        <ele>0</ele>
        <time>2020-06-28T17:45:47Z</time>
      </trkpt>
      <trkpt lat="51.216777350334" lon="4.486476683268">
        <ele>0</ele>
        <time>2020-06-28T17:46:03Z</time>
      </trkpt>
      <trkpt lat="51.217087648272" lon="4.486720680377">
        <ele>0</ele>
        <time>2020-06-28T17:46:14Z</time>
      </trkpt>
      <trkpt lat="51.217146656848" lon="4.487370277627">
        <ele>0</ele>
        <time>2020-06-28T17:46:29Z</time>
      </trkpt>
      <trkpt lat="51.217214047324" lon="4.48825766938">
        <ele>0</ele>
        <time>2020-06-28T17:46:46Z</time>
      </trkpt>
      <trkpt lat="51.217301219084" lon="4.489123268193">
        <ele>0</ele>
        <time>2020-06-28T17:47:00Z</time>
      </trkpt>
      <trkpt lat="51.217409094137" lon="4.490017281647">
        <ele>0</ele>
        <time>2020-06-28T17:47:13Z</time>
      </trkpt>
      <trkpt lat="51.217466258695" lon="4.490885562668">
        <ele>0</ele>
        <time>2020-06-28T17:47:26Z</time>
      </trkpt>
      <trkpt lat="51.217498864286" lon="4.491788460936">
        <ele>0</ele>
        <time>2020-06-28T17:47:42Z</time>
      </trkpt>
      <trkpt lat="51.217574301386" lon="4.492660765269">
        <ele>0</ele>
        <time>2020-06-28T17:47:57Z</time>
      </trkpt>
      <trkpt lat="51.217577235051" lon="4.492788756882">
        <ele>0</ele>
        <time>2020-06-28T17:47:59Z</time>
      </trkpt>
      <trkpt lat="51.217708747062" lon="4.49427503539">
        <ele>0</ele>
        <time>2020-06-28T17:48:25Z</time>
      </trkpt>
      <trkpt lat="51.217980991174" lon="4.495023371422">
        <ele>0</ele>
        <time>2020-06-28T17:48:40Z</time>
      </trkpt>
      <trkpt lat="51.2181783011" lon="4.495647403877">
        <ele>0</ele>
        <time>2020-06-28T17:48:53Z</time>
      </trkpt>
      <trkpt lat="51.2182369744" lon="4.495730803782">
        <ele>0</ele>
        <time>2020-06-28T17:48:55Z</time>
      </trkpt>
      <trkpt lat="51.218805937772" lon="4.49575946988">
        <ele>4.6</ele>
        <time>2020-06-28T17:49:12Z</time>
      </trkpt>
      <trkpt lat="51.219198629787" lon="4.495781095182">
        <ele>26.8</ele>
        <time>2020-06-28T17:49:45Z</time>
      </trkpt>
      <trkpt lat="51.219766754969" lon="4.495781933372">
        <ele>23</ele>
        <time>2020-06-28T17:50:02Z</time>
      </trkpt>
      <trkpt lat="51.219836827653" lon="4.495834320247">
        <ele>20</ele>
        <time>2020-06-28T17:50:04Z</time>
      </trkpt>
      <trkpt lat="51.220181323743" lon="4.496564048461">
        <ele>11.8</ele>
        <time>2020-06-28T17:50:18Z</time>
      </trkpt>
      <trkpt lat="51.22032071474" lon="4.497363178807">
        <ele>7</ele>
        <time>2020-06-28T17:50:34Z</time>
      </trkpt>
      <trkpt lat="51.220818515781" lon="4.497728042914">
        <ele>7.8</ele>
        <time>2020-06-28T17:50:51Z</time>
      </trkpt>
      <trkpt lat="51.221329141129" lon="4.498032557341">
        <ele>6</ele>
        <time>2020-06-28T17:51:08Z</time>
      </trkpt>
      <trkpt lat="51.221884525823" lon="4.498169852863">
        <ele>5.2</ele>
        <time>2020-06-28T17:51:23Z</time>
      </trkpt>
      <trkpt lat="51.222448292417" lon="4.498056697213">
        <ele>4.8</ele>
        <time>2020-06-28T17:51:37Z</time>
      </trkpt>
      <trkpt lat="51.222734282845" lon="4.497902889348">
        <ele>4.4</ele>
        <time>2020-06-28T17:51:47Z</time>
      </trkpt>
      <trkpt lat="51.222737970881" lon="4.497917557673">
        <ele>4.2</ele>
        <time>2020-06-28T17:51:49Z</time>
      </trkpt>
      <trkpt lat="51.222745263134" lon="4.498053512091">
        <ele>3.4</ele>
        <time>2020-06-28T17:52:05Z</time>
      </trkpt>
      <trkpt lat="51.222803265882" lon="4.49832181671">
        <ele>3.6</ele>
        <time>2020-06-28T17:52:11Z</time>
      </trkpt>
      <trkpt lat="51.222790441575" lon="4.498235902235">
        <ele>2.8</ele>
        <time>2020-06-28T17:52:16Z</time>
      </trkpt>
      <trkpt lat="51.222820616415" lon="4.498230034905">
        <ele>3.2</ele>
        <time>2020-06-28T17:52:18Z</time>
      </trkpt>
      <trkpt lat="51.222839056595" lon="4.498280577762">
        <ele>2.6</ele>
        <time>2020-06-28T17:52:26Z</time>
      </trkpt>
      <trkpt lat="51.223005940224" lon="4.499052466933">
        <ele>3</ele>
        <time>2020-06-28T17:52:42Z</time>
      </trkpt>
      <trkpt lat="51.223196460811" lon="4.499893003865">
        <ele>3</ele>
        <time>2020-06-28T17:52:56Z</time>
      </trkpt>
      <trkpt lat="51.223366781019" lon="4.500756171927">
        <ele>2</ele>
        <time>2020-06-28T17:53:12Z</time>
      </trkpt>
      <trkpt lat="51.223471806226" lon="4.50152370251">
        <ele>0.8</ele>
        <time>2020-06-28T17:53:27Z</time>
      </trkpt>
      <trkpt lat="51.223650256877" lon="4.50235686337">
        <ele>0</ele>
        <time>2020-06-28T17:53:44Z</time>
      </trkpt>
      <trkpt lat="51.223816553773" lon="4.503204441098">
        <ele>0</ele>
        <time>2020-06-28T17:53:59Z</time>
      </trkpt>
      <trkpt lat="51.223999614469" lon="4.504042966374">
        <ele>0</ele>
        <time>2020-06-28T17:54:15Z</time>
      </trkpt>
      <trkpt lat="51.224166414279" lon="4.504867745334">
        <ele>0.2</ele>
        <time>2020-06-28T17:54:31Z</time>
      </trkpt>
      <trkpt lat="51.224332627356" lon="4.505689171534">
        <ele>1</ele>
        <time>2020-06-28T17:54:47Z</time>
      </trkpt>
      <trkpt lat="51.224552987507" lon="4.506247322255">
        <ele>2.6</ele>
        <time>2020-06-28T17:55:14Z</time>
      </trkpt>
      <trkpt lat="51.224911146094" lon="4.50616056959">
        <ele>10.4</ele>
        <time>2020-06-28T17:55:37Z</time>
      </trkpt>
      <trkpt lat="51.225075682791" lon="4.50622511022">
        <ele>13.8</ele>
        <time>2020-06-28T18:05:27Z</time>
      </trkpt>
      <trkpt lat="51.225192945572" lon="4.506204071651">
        <ele>14.2</ele>
        <time>2020-06-28T18:05:32Z</time>
      </trkpt>
      <trkpt lat="51.225421855261" lon="4.506233911215">
        <ele>14.4</ele>
        <time>2020-06-28T18:05:42Z</time>
      </trkpt>
      <trkpt lat="51.225938180301" lon="4.506029392855">
        <ele>14.8</ele>
        <time>2020-06-28T18:06:07Z</time>
      </trkpt>
      <trkpt lat="51.226470430951" lon="4.505818923346">
        <ele>7.8</ele>
        <time>2020-06-28T18:06:29Z</time>
      </trkpt>
      <trkpt lat="51.226963119033" lon="4.505595545711">
        <ele>4.2</ele>
        <time>2020-06-28T18:06:55Z</time>
      </trkpt>
      <trkpt lat="51.227467877051" lon="4.505220036591">
        <ele>4.8</ele>
        <time>2020-06-28T18:07:17Z</time>
      </trkpt>
      <trkpt lat="51.227992751629" lon="4.504985678667">
        <ele>4.6</ele>
        <time>2020-06-28T18:07:36Z</time>
      </trkpt>
      <trkpt lat="51.228527768306" lon="4.504688037398">
        <ele>3.8</ele>
        <time>2020-06-28T18:07:56Z</time>
      </trkpt>
      <trkpt lat="51.229045937364" lon="4.504457786605">
        <ele>3</ele>
        <time>2020-06-28T18:08:14Z</time>
      </trkpt>
      <trkpt lat="51.229555221608" lon="4.504609750452">
        <ele>3.6</ele>
        <time>2020-06-28T18:08:36Z</time>
      </trkpt>
      <trkpt lat="51.230049166975" lon="4.504995234033">
        <ele>4.8</ele>
        <time>2020-06-28T18:08:56Z</time>
      </trkpt>
      <trkpt lat="51.230540849229" lon="4.505345094539">
        <ele>3.2</ele>
        <time>2020-06-28T18:09:16Z</time>
      </trkpt>
      <trkpt lat="51.230864055293" lon="4.505768045213">
        <ele>3.6</ele>
        <time>2020-06-28T18:09:33Z</time>
      </trkpt>
      <trkpt lat="51.230587033498" lon="4.506518895815">
        <ele>3.2</ele>
        <time>2020-06-28T18:09:55Z</time>
      </trkpt>
      <trkpt lat="51.230405649182" lon="4.507323893491">
        <ele>0</ele>
        <time>2020-06-28T18:10:16Z</time>
      </trkpt>
      <trkpt lat="51.230256032267" lon="4.508191252503">
        <ele>0</ele>
        <time>2020-06-28T18:10:34Z</time>
      </trkpt>
      <trkpt lat="51.230084370955" lon="4.509023742811">
        <ele>0.8</ele>
        <time>2020-06-28T18:10:49Z</time>
      </trkpt>
      <trkpt lat="51.229914218385" lon="4.509841816251">
        <ele>2.6</ele>
        <time>2020-06-28T18:11:07Z</time>
      </trkpt>
      <trkpt lat="51.22970760455" lon="4.510687801418">
        <ele>0.4</ele>
        <time>2020-06-28T18:11:26Z</time>
      </trkpt>
      <trkpt lat="51.22954667207" lon="4.511503947021">
        <ele>1.8</ele>
        <time>2020-06-28T18:11:43Z</time>
      </trkpt>
      <trkpt lat="51.229360258614" lon="4.512318416244">
        <ele>0.8</ele>
        <time>2020-06-28T18:12:01Z</time>
      </trkpt>
      <trkpt lat="51.229156578444" lon="4.513147805249">
        <ele>0.6</ele>
        <time>2020-06-28T18:12:18Z</time>
      </trkpt>
      <trkpt lat="51.228958849423" lon="4.513967806526">
        <ele>0.6</ele>
        <time>2020-06-28T18:12:38Z</time>
      </trkpt>
      <trkpt lat="51.228915682638" lon="4.514322696172">
        <ele>0</ele>
        <time>2020-06-28T18:12:47Z</time>
      </trkpt>
      <trkpt lat="51.229469223314" lon="4.514386230974">
        <ele>0</ele>
        <time>2020-06-28T18:13:05Z</time>
      </trkpt>
      <trkpt lat="51.230021506705" lon="4.514547750187">
        <ele>8.4</ele>
        <time>2020-06-28T18:13:21Z</time>
      </trkpt>
      <trkpt lat="51.230569515327" lon="4.514653278308">
        <ele>14.6</ele>
        <time>2020-06-28T18:13:37Z</time>
      </trkpt>
      <trkpt lat="51.231141496183" lon="4.514645399322">
        <ele>6.6</ele>
        <time>2020-06-28T18:13:52Z</time>
      </trkpt>
      <trkpt lat="51.231691181185" lon="4.514785460871">
        <ele>2.2</ele>
        <time>2020-06-28T18:14:05Z</time>
      </trkpt>
      <trkpt lat="51.231728899735" lon="4.514816390082">
        <ele>1.8</ele>
        <time>2020-06-28T18:14:06Z</time>
      </trkpt>
      <trkpt lat="51.231837780616" lon="4.514871542984">
        <ele>0</ele>
        <time>2020-06-28T18:14:09Z</time>
      </trkpt>
      <trkpt lat="51.232318650219" lon="4.515216541988">
        <ele>0</ele>
        <time>2020-06-28T18:14:23Z</time>
      </trkpt>
      <trkpt lat="51.232888116505" lon="4.515299774255">
        <ele>0</ele>
        <time>2020-06-28T18:14:39Z</time>
      </trkpt>
      <trkpt lat="51.233449200891" lon="4.51538987968">
        <ele>0.2</ele>
        <time>2020-06-28T18:14:55Z</time>
      </trkpt>
      <trkpt lat="51.233807778573" lon="4.514850169139">
        <ele>0.8</ele>
        <time>2020-06-28T18:15:13Z</time>
      </trkpt>
      <trkpt lat="51.234023612498" lon="4.514046512567">
        <ele>0.8</ele>
        <time>2020-06-28T18:15:33Z</time>
      </trkpt>
      <trkpt lat="51.234053200605" lon="4.513878287834">
        <ele>0.4</ele>
        <time>2020-06-28T18:15:39Z</time>
      </trkpt>
      <trkpt lat="51.23401673934" lon="4.513846436614">
        <ele>0.4</ele>
        <time>2020-06-28T18:15:42Z</time>
      </trkpt>
      <trkpt lat="51.233846000037" lon="4.513014616858">
        <ele>0</ele>
        <time>2020-06-28T18:16:00Z</time>
      </trkpt>
      <trkpt lat="51.233676769476" lon="4.512160585067">
        <ele>0</ele>
        <time>2020-06-28T18:16:17Z</time>
      </trkpt>
      <trkpt lat="51.233520027946" lon="4.511291717313">
        <ele>0</ele>
        <time>2020-06-28T18:16:33Z</time>
      </trkpt>
      <trkpt lat="51.233442243914" lon="4.511013773509">
        <ele>0</ele>
        <time>2020-06-28T18:16:39Z</time>
      </trkpt>
      <trkpt lat="51.233344008046" lon="4.510972031647">
        <ele>0</ele>
        <time>2020-06-28T18:16:43Z</time>
      </trkpt>
      <trkpt lat="51.233197911529" lon="4.510109869413">
        <ele>0.4</ele>
        <time>2020-06-28T18:17:02Z</time>
      </trkpt>
      <trkpt lat="51.233115852728" lon="4.50924175603">
        <ele>0.6</ele>
        <time>2020-06-28T18:17:21Z</time>
      </trkpt>
      <trkpt lat="51.232994398997" lon="4.508487133573">
        <ele>1</ele>
        <time>2020-06-28T18:17:37Z</time>
      </trkpt>
      <trkpt lat="51.23304108618" lon="4.508437345087">
        <ele>1.2</ele>
        <time>2020-06-28T18:17:39Z</time>
      </trkpt>
      <trkpt lat="51.233462528112" lon="4.508052029144">
        <ele>1.8</ele>
        <time>2020-06-28T18:17:55Z</time>
      </trkpt>
      <trkpt lat="51.233371500678" lon="4.507184670132">
        <ele>3.2</ele>
        <time>2020-06-28T18:18:15Z</time>
      </trkpt>
      <trkpt lat="51.233273683905" lon="4.506336924766">
        <ele>0.2</ele>
        <time>2020-06-28T18:18:34Z</time>
      </trkpt>
      <trkpt lat="51.233245185445" lon="4.505483479708">
        <ele>1.6</ele>
        <time>2020-06-28T18:18:54Z</time>
      </trkpt>
      <trkpt lat="51.233212496035" lon="4.504601620009">
        <ele>0.8</ele>
        <time>2020-06-28T18:19:14Z</time>
      </trkpt>
      <trkpt lat="51.233215010605" lon="4.504487877626">
        <ele>1.2</ele>
        <time>2020-06-28T18:19:20Z</time>
      </trkpt>
      <trkpt lat="51.233210652017" lon="4.504411769974">
        <ele>1.2</ele>
        <time>2020-06-28T18:20:15Z</time>
      </trkpt>
      <trkpt lat="51.233215597338" lon="4.504395592907">
        <ele>1.2</ele>
        <time>2020-06-28T18:20:16Z</time>
      </trkpt>
      <trkpt lat="51.233237557916" lon="4.504213286582">
        <ele>1.2</ele>
        <time>2020-06-28T18:20:23Z</time>
      </trkpt>
      <trkpt lat="51.233386923374" lon="4.503380209541">
        <ele>1</ele>
        <time>2020-06-28T18:20:44Z</time>
      </trkpt>
      <trkpt lat="51.233503096508" lon="4.502519220773">
        <ele>1</ele>
        <time>2020-06-28T18:21:01Z</time>
      </trkpt>
      <trkpt lat="51.233610803923" lon="4.501623111844">
        <ele>0.4</ele>
        <time>2020-06-28T18:21:20Z</time>
      </trkpt>
      <trkpt lat="51.233720606813" lon="4.500729852761">
        <ele>0.2</ele>
        <time>2020-06-28T18:21:36Z</time>
      </trkpt>
      <trkpt lat="51.233848179331" lon="4.499881185386">
        <ele>0.4</ele>
        <time>2020-06-28T18:21:54Z</time>
      </trkpt>
      <trkpt lat="51.234331395866" lon="4.500337412203">
        <ele>0</ele>
        <time>2020-06-28T18:22:12Z</time>
      </trkpt>
      <trkpt lat="51.234836237703" lon="4.500741922697">
        <ele>0</ele>
        <time>2020-06-28T18:22:27Z</time>
      </trkpt>
      <trkpt lat="51.235329931613" lon="4.501121287491">
        <ele>0</ele>
        <time>2020-06-28T18:22:42Z</time>
      </trkpt>
      <trkpt lat="51.235820356582" lon="4.501503669769">
        <ele>0</ele>
        <time>2020-06-28T18:22:57Z</time>
      </trkpt>
      <trkpt lat="51.236336346346" lon="4.501896864698">
        <ele>0</ele>
        <time>2020-06-28T18:23:13Z</time>
      </trkpt>
      <trkpt lat="51.236857113793" lon="4.502142202911">
        <ele>0</ele>
        <time>2020-06-28T18:23:28Z</time>
      </trkpt>
      <trkpt lat="51.237119048168" lon="4.501977750033">
        <ele>1</ele>
        <time>2020-06-28T18:23:37Z</time>
      </trkpt>
      <trkpt lat="51.237075965202" lon="4.501927626271">
        <ele>1</ele>
        <time>2020-06-28T18:23:41Z</time>
      </trkpt>
      <trkpt lat="51.236716968425" lon="4.502026532691">
        <ele>1.8</ele>
        <time>2020-06-28T18:23:56Z</time>
      </trkpt>
      <trkpt lat="51.236513958807" lon="4.501957549654">
        <ele>1.8</ele>
        <time>2020-06-28T18:24:01Z</time>
      </trkpt>
      <trkpt lat="51.23570653038" lon="4.501330248258">
        <ele>2</ele>
        <time>2020-06-28T18:24:25Z</time>
      </trkpt>
      <trkpt lat="51.23520277819" lon="4.500961193201">
        <ele>3</ele>
        <time>2020-06-28T18:24:41Z</time>
      </trkpt>
      <trkpt lat="51.234702797855" lon="4.500616948568">
        <ele>4</ele>
        <time>2020-06-28T18:24:57Z</time>
      </trkpt>
      <trkpt lat="51.234196279638" lon="4.500255018126">
        <ele>8.2</ele>
        <time>2020-06-28T18:25:13Z</time>
      </trkpt>
      <trkpt lat="51.233695796389" lon="4.499852435469">
        <ele>6</ele>
        <time>2020-06-28T18:25:31Z</time>
      </trkpt>
      <trkpt lat="51.233699316787" lon="4.499156151036">
        <ele>4.6</ele>
        <time>2020-06-28T18:25:54Z</time>
      </trkpt>
      <trkpt lat="51.234023025765" lon="4.498432709247">
        <ele>3.2</ele>
        <time>2020-06-28T18:26:10Z</time>
      </trkpt>
      <trkpt lat="51.234302226854" lon="4.497648666321">
        <ele>2.2</ele>
        <time>2020-06-28T18:26:29Z</time>
      </trkpt>
      <trkpt lat="51.234532645285" lon="4.496830760519">
        <ele>1.6</ele>
        <time>2020-06-28T18:26:46Z</time>
      </trkpt>
      <trkpt lat="51.234772870539" lon="4.496023667368">
        <ele>1.4</ele>
        <time>2020-06-28T18:27:07Z</time>
      </trkpt>
      <trkpt lat="51.235025668643" lon="4.49524230665">
        <ele>0</ele>
        <time>2020-06-28T18:27:26Z</time>
      </trkpt>
      <trkpt lat="51.235257092902" lon="4.494443092485">
        <ele>0</ele>
        <time>2020-06-28T18:27:43Z</time>
      </trkpt>
      <trkpt lat="51.235464461108" lon="4.493622839751">
        <ele>2</ele>
        <time>2020-06-28T18:28:01Z</time>
      </trkpt>
      <trkpt lat="51.235687754924" lon="4.492834857332">
        <ele>3.6</ele>
        <time>2020-06-28T18:28:21Z</time>
      </trkpt>
      <trkpt lat="51.235931500576" lon="4.492047880741">
        <ele>0</ele>
        <time>2020-06-28T18:28:41Z</time>
      </trkpt>
      <trkpt lat="51.236174491857" lon="4.491233495337">
        <ele>0</ele>
        <time>2020-06-28T18:29:02Z</time>
      </trkpt>
      <trkpt lat="51.236366102091" lon="4.49057107378">
        <ele>0.6</ele>
        <time>2020-06-28T18:29:27Z</time>
      </trkpt>
      <trkpt lat="51.236573386478" lon="4.490683977973">
        <ele>0</ele>
        <time>2020-06-28T18:29:45Z</time>
      </trkpt>
      <trkpt lat="51.23712390967" lon="4.490650031278">
        <ele>0</ele>
        <time>2020-06-28T18:30:04Z</time>
      </trkpt>
      <trkpt lat="51.237666470057" lon="4.490398658097">
        <ele>0</ele>
        <time>2020-06-28T18:30:20Z</time>
      </trkpt>
      <trkpt lat="51.238106771264" lon="4.49038331922">
        <ele>0</ele>
        <time>2020-06-28T18:30:39Z</time>
      </trkpt>
      <trkpt lat="51.238093779319" lon="4.490425396358">
        <ele>0</ele>
        <time>2020-06-28T18:30:41Z</time>
      </trkpt>
      <trkpt lat="51.237551973303" lon="4.490482141821">
        <ele>0</ele>
        <time>2020-06-28T18:31:01Z</time>
      </trkpt>
      <trkpt lat="51.237011676029" lon="4.490698311022">
        <ele>0</ele>
        <time>2020-06-28T18:31:17Z</time>
      </trkpt>
      <trkpt lat="51.236457464801" lon="4.490588005218">
        <ele>4.8</ele>
        <time>2020-06-28T18:31:34Z</time>
      </trkpt>
      <trkpt lat="51.236335340518" lon="4.490525392425">
        <ele>5</ele>
        <time>2020-06-28T18:31:39Z</time>
      </trkpt>
      <trkpt lat="51.236311033008" lon="4.49045959451">
        <ele>2.8</ele>
        <time>2020-06-28T18:31:51Z</time>
      </trkpt>
      <trkpt lat="51.236322516211" lon="4.490192463357">
        <ele>0</ele>
        <time>2020-06-28T18:32:02Z</time>
      </trkpt>
      <trkpt lat="51.236270129336" lon="4.490115349877">
        <ele>0</ele>
        <time>2020-06-28T18:32:28Z</time>
      </trkpt>
      <trkpt lat="51.236053121945" lon="4.489699272361">
        <ele>0</ele>
        <time>2020-06-28T18:32:41Z</time>
      </trkpt>
      <trkpt lat="51.235883639927" lon="4.489604892167">
        <ele>0</ele>
        <time>2020-06-28T18:32:49Z</time>
      </trkpt>
      <trkpt lat="51.235521877123" lon="4.488959318229">
        <ele>0</ele>
        <time>2020-06-28T18:33:08Z</time>
      </trkpt>
      <trkpt lat="51.235151229505" lon="4.488304356563">
        <ele>0</ele>
        <time>2020-06-28T18:33:27Z</time>
      </trkpt>
      <trkpt lat="51.234782174448" lon="4.487636486771">
        <ele>0</ele>
        <time>2020-06-28T18:33:46Z</time>
      </trkpt>
      <trkpt lat="51.234462907877" lon="4.486950512075">
        <ele>0</ele>
        <time>2020-06-28T18:34:03Z</time>
      </trkpt>
      <trkpt lat="51.234100725978" lon="4.486311224562">
        <ele>0</ele>
        <time>2020-06-28T18:34:21Z</time>
      </trkpt>
      <trkpt lat="51.233747931807" lon="4.485630614282">
        <ele>0</ele>
        <time>2020-06-28T18:34:37Z</time>
      </trkpt>
      <trkpt lat="51.233381307501" lon="4.484959056454">
        <ele>0</ele>
        <time>2020-06-28T18:34:51Z</time>
      </trkpt>
      <trkpt lat="51.233022226905" lon="4.484316248543">
        <ele>0</ele>
        <time>2020-06-28T18:35:04Z</time>
      </trkpt>
      <trkpt lat="51.23263791679" lon="4.483653994624">
        <ele>0</ele>
        <time>2020-06-28T18:35:19Z</time>
      </trkpt>
      <trkpt lat="51.232235417952" lon="4.48307849337">
        <ele>0</ele>
        <time>2020-06-28T18:35:36Z</time>
      </trkpt>
      <trkpt lat="51.231994773603" lon="4.482308029122">
        <ele>4</ele>
        <time>2020-06-28T18:35:54Z</time>
      </trkpt>
      <trkpt lat="51.231874912433" lon="4.481489620406">
        <ele>8</ele>
        <time>2020-06-28T18:36:11Z</time>
      </trkpt>
      <trkpt lat="51.231862842497" lon="4.480618489539">
        <ele>5.8</ele>
        <time>2020-06-28T18:36:29Z</time>
      </trkpt>
      <trkpt lat="51.231858735366" lon="4.47970310224">
        <ele>0.8</ele>
        <time>2020-06-28T18:36:44Z</time>
      </trkpt>
      <trkpt lat="51.232184372181" lon="4.479190632874">
        <ele>1.4</ele>
        <time>2020-06-28T18:37:05Z</time>
      </trkpt>
      <trkpt lat="51.232360559719" lon="4.478441793928">
        <ele>3.4</ele>
        <time>2020-06-28T18:37:26Z</time>
      </trkpt>
      <trkpt lat="51.232038108026" lon="4.477744587486">
        <ele>7.4</ele>
        <time>2020-06-28T18:37:42Z</time>
      </trkpt>
      <trkpt lat="51.231728313002" lon="4.477023995543">
        <ele>7.8</ele>
        <time>2020-06-28T18:37:57Z</time>
      </trkpt>
      <trkpt lat="51.231442490212" lon="4.476252693105">
        <ele>4</ele>
        <time>2020-06-28T18:38:17Z</time>
      </trkpt>
      <trkpt lat="51.231123642736" lon="4.475558001233">
        <ele>7.8</ele>
        <time>2020-06-28T18:38:33Z</time>
      </trkpt>
      <trkpt lat="51.230778308456" lon="4.474835649091">
        <ele>14.8</ele>
        <time>2020-06-28T18:38:50Z</time>
      </trkpt>
      <trkpt lat="51.230477733522" lon="4.474087648335">
        <ele>13</ele>
        <time>2020-06-28T18:39:06Z</time>
      </trkpt>
      <trkpt lat="51.230159640417" lon="4.47337644412">
        <ele>7.4</ele>
        <time>2020-06-28T18:39:22Z</time>
      </trkpt>
      <trkpt lat="51.229852276144" lon="4.472622576034">
        <ele>1.2</ele>
        <time>2020-06-28T18:39:41Z</time>
      </trkpt>
      <trkpt lat="51.229517754515" lon="4.47190877343">
        <ele>0</ele>
        <time>2020-06-28T18:39:58Z</time>
      </trkpt>
      <trkpt lat="51.22919463227" lon="4.471163957796">
        <ele>2.6</ele>
        <time>2020-06-28T18:40:18Z</time>
      </trkpt>
      <trkpt lat="51.228860781193" lon="4.470448478812">
        <ele>2.8</ele>
        <time>2020-06-28T18:40:37Z</time>
      </trkpt>
      <trkpt lat="51.228745278611" lon="4.470109011862">
        <ele>0</ele>
        <time>2020-06-28T18:40:48Z</time>
      </trkpt>
      <trkpt lat="51.228713008296" lon="4.469893345575">
        <ele>0</ele>
        <time>2020-06-28T18:41:22Z</time>
      </trkpt>
      <trkpt lat="51.228683420189" lon="4.469829056402">
        <ele>0.4</ele>
        <time>2020-06-28T18:41:25Z</time>
      </trkpt>
      <trkpt lat="51.228654586453" lon="4.469809610394">
        <ele>0.8</ele>
        <time>2020-06-28T18:41:27Z</time>
      </trkpt>
      <trkpt lat="51.228355939356" lon="4.469090359555">
        <ele>1.4</ele>
        <time>2020-06-28T18:41:48Z</time>
      </trkpt>
      <trkpt lat="51.228096016637" lon="4.468322828972">
        <ele>2.8</ele>
        <time>2020-06-28T18:42:08Z</time>
      </trkpt>
      <trkpt lat="51.227861742532" lon="4.467501989505">
        <ele>4.4</ele>
        <time>2020-06-28T18:42:27Z</time>
      </trkpt>
      <trkpt lat="51.227662923864" lon="4.466689615757">
        <ele>0.6</ele>
        <time>2020-06-28T18:42:47Z</time>
      </trkpt>
      <trkpt lat="51.227646998254" lon="4.466569838406">
        <ele>1.4</ele>
        <time>2020-06-28T18:42:51Z</time>
      </trkpt>
      <trkpt lat="51.227676083447" lon="4.466550308579">
        <ele>1.6</ele>
        <time>2020-06-28T18:42:53Z</time>
      </trkpt>
      <trkpt lat="51.227760153904" lon="4.466602946911">
        <ele>2</ele>
        <time>2020-06-28T18:42:57Z</time>
      </trkpt>
      <trkpt lat="51.227932821044" lon="4.465825022772">
        <ele>0</ele>
        <time>2020-06-28T18:43:19Z</time>
      </trkpt>
      <trkpt lat="51.227871381717" lon="4.464930590223">
        <ele>0</ele>
        <time>2020-06-28T18:43:39Z</time>
      </trkpt>
      <trkpt lat="51.227841542153" lon="4.464047054144">
        <ele>0</ele>
        <time>2020-06-28T18:43:58Z</time>
      </trkpt>
      <trkpt lat="51.22777306203" lon="4.463187490299">
        <ele>0</ele>
        <time>2020-06-28T18:44:17Z</time>
      </trkpt>
      <trkpt lat="51.227854701736" lon="4.462318371088">
        <ele>0.2</ele>
        <time>2020-06-28T18:44:37Z</time>
      </trkpt>
      <trkpt lat="51.227821928507" lon="4.461443216909">
        <ele>1.8</ele>
        <time>2020-06-28T18:44:54Z</time>
      </trkpt>
      <trkpt lat="51.227809774752" lon="4.460596812647">
        <ele>2.6</ele>
        <time>2020-06-28T18:45:11Z</time>
      </trkpt>
      <trkpt lat="51.228271533623" lon="4.460140837287">
        <ele>1.6</ele>
        <time>2020-06-28T18:45:31Z</time>
      </trkpt>
      <trkpt lat="51.228482506046" lon="4.459354028334">
        <ele>1.6</ele>
        <time>2020-06-28T18:45:49Z</time>
      </trkpt>
      <trkpt lat="51.228527097754" lon="4.458488932435">
        <ele>0.2</ele>
        <time>2020-06-28T18:46:11Z</time>
      </trkpt>
      <trkpt lat="51.22850061095" lon="4.457611598962">
        <ele>0</ele>
        <time>2020-06-28T18:46:30Z</time>
      </trkpt>
      <trkpt lat="51.228650898417" lon="4.456934341442">
        <ele>0.4</ele>
        <time>2020-06-28T18:46:52Z</time>
      </trkpt>
      <trkpt lat="51.229183987257" lon="4.456769050374">
        <ele>4</ele>
        <time>2020-06-28T18:47:13Z</time>
      </trkpt>
      <trkpt lat="51.229717830468" lon="4.456646423177">
        <ele>9.2</ele>
        <time>2020-06-28T18:47:35Z</time>
      </trkpt>
      <trkpt lat="51.230270784411" lon="4.456475097141">
        <ele>9.2</ele>
        <time>2020-06-28T18:47:56Z</time>
      </trkpt>
      <trkpt lat="51.230811249323" lon="4.456297400861">
        <ele>7.2</ele>
        <time>2020-06-28T18:48:13Z</time>
      </trkpt>
      <trkpt lat="51.23104954674" lon="4.455952737133">
        <ele>5</ele>
        <time>2020-06-28T18:48:25Z</time>
      </trkpt>
      <trkpt lat="51.231088019661" lon="4.455963214508">
        <ele>5.4</ele>
        <time>2020-06-28T18:48:27Z</time>
      </trkpt>
      <trkpt lat="51.231239564413" lon="4.455985929457">
        <ele>3</ele>
        <time>2020-06-28T18:48:33Z</time>
      </trkpt>
      <trkpt lat="51.231307541622" lon="4.45579708525">
        <ele>0</ele>
        <time>2020-06-28T18:48:38Z</time>
      </trkpt>
      <trkpt lat="51.231161109829" lon="4.454930480609">
        <ele>0</ele>
        <time>2020-06-28T18:48:57Z</time>
      </trkpt>
      <trkpt lat="51.231005457946" lon="4.454094805179">
        <ele>0</ele>
        <time>2020-06-28T18:49:17Z</time>
      </trkpt>
      <trkpt lat="51.23085508666" lon="4.453256363722">
        <ele>0</ele>
        <time>2020-06-28T18:49:35Z</time>
      </trkpt>
      <trkpt lat="51.230660375123" lon="4.452420939749">
        <ele>0</ele>
        <time>2020-06-28T18:49:53Z</time>
      </trkpt>
      <trkpt lat="51.230591559724" lon="4.451555508574">
        <ele>0</ele>
        <time>2020-06-28T18:50:14Z</time>
      </trkpt>
      <trkpt lat="51.230407241743" lon="4.450720084601">
        <ele>0</ele>
        <time>2020-06-28T18:50:32Z</time>
      </trkpt>
      <trkpt lat="51.229859652216" lon="4.450830474224">
        <ele>0</ele>
        <time>2020-06-28T18:50:48Z</time>
      </trkpt>
      <trkpt lat="51.229707269274" lon="4.450882944918">
        <ele>0</ele>
        <time>2020-06-28T18:50:53Z</time>
      </trkpt>
      <trkpt lat="51.229503337647" lon="4.450097141793">
        <ele>0</ele>
        <time>2020-06-28T18:51:11Z</time>
      </trkpt>
      <trkpt lat="51.229434438429" lon="4.449238332319">
        <ele>2.4</ele>
        <time>2020-06-28T18:51:27Z</time>
      </trkpt>
      <trkpt lat="51.2291585901" lon="4.448498378187">
        <ele>5.8</ele>
        <time>2020-06-28T18:51:44Z</time>
      </trkpt>
      <trkpt lat="51.22899765762" lon="4.44844364438">
        <ele>5.8</ele>
        <time>2020-06-28T18:51:51Z</time>
      </trkpt>
      <trkpt lat="51.228618711921" lon="4.449058456745">
        <ele>0.2</ele>
        <time>2020-06-28T18:52:03Z</time>
      </trkpt>
      <trkpt lat="51.228452331206" lon="4.449321648405">
        <ele>0</ele>
        <time>2020-06-28T18:52:22Z</time>
      </trkpt>
    </trkseg>
  </trk>
</gpx>